Urundel, Argentina
Current Conditions -  °F | °C
As of 6:00 PM on Thursday 18 Dec 2014 (Local Time) from SASJ Reporting Station
Overcast Overcast  
Wind Chill: 73°   Ceiling: 10000
Heat Index: 73°   Visibility: 6mi
Dew Point: 64°   Wind: 5mph
Humidity: 73%   Direction: 50°NE
Pressure: 29.91"   Gusts: NA
Location:  23.55°S, 64.42°W
Report Text: SASJ 182100Z 05004KT 9999 SCT025 OVC10023/18 Q1013
Loading
Personal Weather Stations






























Interactive Weather Map New forecast layout! Learn more

10-Day Weather Forecast

Advertisements
Track Severe Weather on mobile